sensor_id;sensor_type;location;lat;lon;timestamp;pressure;altitude;pressure_sealevel;temperature;humidity
12973;BME280;6551;51.056;9.466;2023-08-30T00:01:24;96974.38;;;16.95;75.50
12973;BME280;6551;51.056;9.466;2023-08-30T00:03:49;96968.50;;;16.93;75.44
12973;BME280;6551;51.056;9.466;2023-08-30T00:06:17;96973.03;;;16.98;75.17
12973;BME280;6551;51.056;9.466;2023-08-30T00:08:43;96962.81;;;16.94;74.87
12973;BME280;6551;51.056;9.466;2023-08-30T00:11:09;96958.81;;;16.92;74.67
12973;BME280;6551;51.056;9.466;2023-08-30T00:13:36;96958.00;;;16.91;74.57
12973;BME280;6551;51.056;9.466;2023-08-30T00:16:05;96957.47;;;16.89;74.62
12973;BME280;6551;51.056;9.466;2023-08-30T00:18:31;96953.16;;;16.88;74.45
12973;BME280;6551;51.056;9.466;2023-08-30T00:20:56;96952.94;;;16.85;74.50
12973;BME280;6551;51.056;9.466;2023-08-30T00:23:22;96955.34;;;16.86;74.38
12973;BME280;6551;51.056;9.466;2023-08-30T00:25:49;96952.09;;;16.89;73.97
12973;BME280;6551;51.056;9.466;2023-08-30T00:28:16;96959.91;;;16.86;74.35
12973;BME280;6551;51.056;9.466;2023-08-30T00:30:42;96961.00;;;16.85;74.12
12973;BME280;6551;51.056;9.466;2023-08-30T00:33:09;96963.94;;;16.83;74.08
12973;BME280;6551;51.056;9.466;2023-08-30T00:35:36;96964.22;;;16.82;73.80
12973;BME280;6551;51.056;9.466;2023-08-30T00:38:03;96954.84;;;16.79;73.49
12973;BME280;6551;51.056;9.466;2023-08-30T00:40:29;96962.31;;;16.92;73.43
12973;BME280;6551;51.056;9.466;2023-08-30T00:43:04;96964.44;;;16.95;72.80
12973;BME280;6551;51.056;9.466;2023-08-30T00:45:31;96964.16;;;16.97;72.84
12973;BME280;6551;51.056;9.466;2023-08-30T00:47:57;96957.97;;;16.96;72.90
12973;BME280;6551;51.056;9.466;2023-08-30T00:50:23;96959.31;;;16.94;73.15
12973;BME280;6551;51.056;9.466;2023-08-30T00:52:49;96955.56;;;16.95;72.79
12973;BME280;6551;51.056;9.466;2023-08-30T00:55:16;96957.72;;;16.93;73.16
12973;BME280;6551;51.056;9.466;2023-08-30T00:57:43;96962.81;;;16.94;73.13
12973;BME280;6551;51.056;9.466;2023-08-30T01:00:09;96955.03;;;16.93;72.21
12973;BME280;6551;51.056;9.466;2023-08-30T01:02:37;96959.88;;;16.91;72.29
12973;BME280;6551;51.056;9.466;2023-08-30T01:05:05;96959.09;;;16.90;71.90
12973;BME280;6551;51.056;9.466;2023-08-30T01:07:32;96953.72;;;16.90;71.71
12973;BME280;6551;51.056;9.466;2023-08-30T01:09:58;96951.00;;;16.95;71.49
12973;BME280;6551;51.056;9.466;2023-08-30T01:12:37;96949.13;;;16.96;71.73
12973;BME280;6551;51.056;9.466;2023-08-30T01:15:13;96948.84;;;16.92;72.01
12973;BME280;6551;51.056;9.466;2023-08-30T01:17:42;96946.19;;;16.87;72.22
12973;BME280;6551;51.056;9.466;2023-08-30T01:20:09;96942.72;;;16.82;72.04
12973;BME280;6551;51.056;9.466;2023-08-30T01:23:07;96941.41;;;16.79;72.42
12973;BME280;6551;51.056;9.466;2023-08-30T01:26:13;96929.81;;;16.79;72.58
12973;BME280;6551;51.056;9.466;2023-08-30T01:28:41;96930.38;;;16.76;72.30
12973;BME280;6551;51.056;9.466;2023-08-30T01:31:10;96927.94;;;16.74;72.50
12973;BME280;6551;51.056;9.466;2023-08-30T01:33:40;96930.94;;;16.73;71.87
12973;BME280;6551;51.056;9.466;2023-08-30T01:36:07;96932.53;;;16.69;72.04
12973;BME280;6551;51.056;9.466;2023-08-30T01:38:35;96923.97;;;16.67;71.58
12973;BME280;6551;51.056;9.466;2023-08-30T01:41:02;96928.81;;;16.65;72.23
12973;BME280;6551;51.056;9.466;2023-08-30T01:43:30;96919.41;;;16.62;72.07
12973;BME280;6551;51.056;9.466;2023-08-30T01:45:58;96926.16;;;16.60;72.26
12973;BME280;6551;51.056;9.466;2023-08-30T01:48:26;96920.50;;;16.56;72.44
12973;BME280;6551;51.056;9.466;2023-08-30T01:50:53;96933.44;;;16.54;72.27
12973;BME280;6551;51.056;9.466;2023-08-30T01:53:25;96923.75;;;16.53;72.40
12973;BME280;6551;51.056;9.466;2023-08-30T01:55:52;96929.38;;;16.52;72.73
12973;BME280;6551;51.056;9.466;2023-08-30T01:58:19;96934.19;;;16.50;72.91
12973;BME280;6551;51.056;9.466;2023-08-30T02:00:46;96931.00;;;16.48;73.00
12973;BME280;6551;51.056;9.466;2023-08-30T02:03:14;96928.03;;;16.44;73.37
12973;BME280;6551;51.056;9.466;2023-08-30T02:06:09;96931.84;;;16.38;73.08
12973;BME280;6551;51.056;9.466;2023-08-30T02:08:55;96936.94;;;16.24;73.42
12973;BME280;6551;51.056;9.466;2023-08-30T02:11:28;96932.41;;;16.20;73.86
12973;BME280;6551;51.056;9.466;2023-08-30T02:13:59;96940.47;;;16.20;73.85
12973;BME280;6551;51.056;9.466;2023-08-30T02:16:26;96926.50;;;16.18;73.72
12973;BME280;6551;51.056;9.466;2023-08-30T02:18:53;96928.13;;;16.14;73.88
12973;BME280;6551;51.056;9.466;2023-08-30T02:21:19;96928.94;;;16.14;74.14
12973;BME280;6551;51.056;9.466;2023-08-30T02:23:57;96933.97;;;16.46;72.45
12973;BME280;6551;51.056;9.466;2023-08-30T02:26:24;96922.41;;;16.46;72.92
12973;BME280;6551;51.056;9.466;2023-08-30T02:28:50;96929.19;;;16.18;73.05
12973;BME280;6551;51.056;9.466;2023-08-30T02:31:15;96927.88;;;16.15;73.42
12973;BME280;6551;51.056;9.466;2023-08-30T02:33:42;96933.50;;;16.14;73.50
12973;BME280;6551;51.056;9.466;2023-08-30T02:36:09;96933.22;;;16.15;73.11
12973;BME280;6551;51.056;9.466;2023-08-30T02:38:37;96932.41;;;16.15;72.88
12973;BME280;6551;51.056;9.466;2023-08-30T02:41:03;96921.69;;;16.10;72.98
12973;BME280;6551;51.056;9.466;2023-08-30T02:43:29;96928.13;;;16.09;73.30
12973;BME280;6551;51.056;9.466;2023-08-30T02:45:56;96928.66;;;16.06;73.74
12973;BME280;6551;51.056;9.466;2023-08-30T02:48:22;96916.88;;;16.02;74.12
12973;BME280;6551;51.056;9.466;2023-08-30T02:50:49;96912.56;;;16.06;73.52
12973;BME280;6551;51.056;9.466;2023-08-30T02:53:14;96917.94;;;16.06;72.95
12973;BME280;6551;51.056;9.466;2023-08-30T02:55:41;96905.59;;;16.05;73.19
12973;BME280;6551;51.056;9.466;2023-08-30T02:58:08;96916.03;;;16.11;73.19
12973;BME280;6551;51.056;9.466;2023-08-30T03:00:34;96918.75;;;16.01;73.51
12973;BME280;6551;51.056;9.466;2023-08-30T03:03:00;96917.38;;;16.14;72.51
12973;BME280;6551;51.056;9.466;2023-08-30T03:05:27;96919.50;;;16.17;72.40
12973;BME280;6551;51.056;9.466;2023-08-30T03:07:54;96915.25;;;16.16;72.67
12973;BME280;6551;51.056;9.466;2023-08-30T03:10:19;96917.41;;;15.99;73.29
12973;BME280;6551;51.056;9.466;2023-08-30T03:12:46;96919.81;;;16.00;73.27
12973;BME280;6551;51.056;9.466;2023-08-30T03:15:12;96919.00;;;16.10;72.91
12973;BME280;6551;51.056;9.466;2023-08-30T03:17:38;96916.56;;;16.08;73.00
12973;BME280;6551;51.056;9.466;2023-08-30T03:20:05;96915.50;;;16.14;72.39
12973;BME280;6551;51.056;9.466;2023-08-30T03:22:31;96912.28;;;16.17;71.84
12973;BME280;6551;51.056;9.466;2023-08-30T03:24:58;96916.25;;;16.35;72.38
12973;BME280;6551;51.056;9.466;2023-08-30T03:27:25;96914.13;;;16.27;72.90
12973;BME280;6551;51.056;9.466;2023-08-30T03:29:51;96906.84;;;16.27;72.34
12973;BME280;6551;51.056;9.466;2023-08-30T03:32:18;96902.28;;;16.33;71.98
12973;BME280;6551;51.056;9.466;2023-08-30T03:34:45;96902.81;;;16.30;72.17
12973;BME280;6551;51.056;9.466;2023-08-30T03:37:14;96907.66;;;16.33;72.30
12973;BME280;6551;51.056;9.466;2023-08-30T03:39:43;96900.72;;;16.27;71.92
12973;BME280;6551;51.056;9.466;2023-08-30T03:42:09;96898.03;;;16.27;72.62
12973;BME280;6551;51.056;9.466;2023-08-30T03:44:37;96901.25;;;16.24;72.80
12973;BME280;6551;51.056;9.466;2023-08-30T03:47:04;96895.59;;;16.25;72.29
12973;BME280;6551;51.056;9.466;2023-08-30T03:49:30;96887.81;;;16.24;72.33
12973;BME280;6551;51.056;9.466;2023-08-30T03:51:58;96890.78;;;16.17;72.30
12973;BME280;6551;51.056;9.466;2023-08-30T03:54:23;96890.81;;;16.07;72.58
12973;BME280;6551;51.056;9.466;2023-08-30T03:56:49;96902.59;;;16.21;72.18
12973;BME280;6551;51.056;9.466;2023-08-30T03:59:15;96901.25;;;16.24;71.87
12973;BME280;6551;51.056;9.466;2023-08-30T04:01:41;96890.50;;;16.24;71.47
12973;BME280;6551;51.056;9.466;2023-08-30T04:04:08;96889.16;;;16.21;71.52
12973;BME280;6551;51.056;9.466;2023-08-30T04:06:35;96888.38;;;16.21;72.25
12973;BME280;6551;51.056;9.466;2023-08-30T04:09:01;96887.81;;;16.14;71.06
12973;BME280;6551;51.056;9.466;2023-08-30T04:11:27;96883.25;;;16.14;71.76
12973;BME280;6551;51.056;9.466;2023-08-30T04:13:52;96886.25;;;16.13;72.05
12973;BME280;6551;51.056;9.466;2023-08-30T04:16:19;96880.06;;;16.12;72.31
12973;BME280;6551;51.056;9.466;2023-08-30T04:18:46;96881.13;;;16.11;72.50
12973;BME280;6551;51.056;9.466;2023-08-30T04:21:12;96877.09;;;16.09;72.02
12973;BME280;6551;51.056;9.466;2023-08-30T04:23:39;96881.66;;;16.08;72.70
12973;BME280;6551;51.056;9.466;2023-08-30T04:26:05;96877.66;;;16.06;72.83
12973;BME280;6551;51.056;9.466;2023-08-30T04:28:32;96873.09;;;16.06;72.93
12973;BME280;6551;51.056;9.466;2023-08-30T04:30:58;96873.91;;;16.07;72.51
12973;BME280;6551;51.056;9.466;2023-08-30T04:33:24;96873.59;;;16.08;72.37
12973;BME280;6551;51.056;9.466;2023-08-30T04:35:53;96874.94;;;16.11;73.08
12973;BME280;6551;51.056;9.466;2023-08-30T04:38:20;96881.94;;;16.07;72.84
12973;BME280;6551;51.056;9.466;2023-08-30T04:40:48;96882.22;;;16.10;72.51
12973;BME280;6551;51.056;9.466;2023-08-30T04:43:15;96887.03;;;16.13;72.37
12973;BME280;6551;51.056;9.466;2023-08-30T04:45:43;96876.81;;;16.20;72.26
12973;BME280;6551;51.056;9.466;2023-08-30T04:48:13;96883.78;;;16.26;72.46
12973;BME280;6551;51.056;9.466;2023-08-30T04:50:40;96875.94;;;16.30;72.41
12973;BME280;6551;51.056;9.466;2023-08-30T04:53:05;96874.06;;;16.30;72.20
12973;BME280;6551;51.056;9.466;2023-08-30T04:55:32;96877.88;;;16.19;72.20
12973;BME280;6551;51.056;9.466;2023-08-30T04:57:57;96880.31;;;16.16;72.83
12973;BME280;6551;51.056;9.466;2023-08-30T05:00:23;96877.63;;;16.21;72.56
12973;BME280;6551;51.056;9.466;2023-08-30T05:02:49;96877.63;;;16.21;72.33
12973;BME280;6551;51.056;9.466;2023-08-30T05:05:15;96873.25;;;16.30;72.63
12973;BME280;6551;51.056;9.466;2023-08-30T05:07:42;96882.69;;;16.22;72.20
12973;BME280;6551;51.056;9.466;2023-08-30T05:10:08;96876.28;;;16.18;72.47
12973;BME280;6551;51.056;9.466;2023-08-30T05:12:35;96869.78;;;16.24;72.47
12973;BME280;6551;51.056;9.466;2023-08-30T05:15:02;96867.38;;;16.28;72.29
12973;BME280;6551;51.056;9.466;2023-08-30T05:17:29;96866.59;;;16.22;73.45
12973;BME280;6551;51.056;9.466;2023-08-30T05:19:55;96875.16;;;16.29;72.81
12973;BME280;6551;51.056;9.466;2023-08-30T05:22:21;96872.22;;;16.26;72.65
12973;BME280;6551;51.056;9.466;2023-08-30T05:24:48;96866.56;;;16.27;72.54
12973;BME280;6551;51.056;9.466;2023-08-30T05:27:17;96872.97;;;16.36;72.85
12973;BME280;6551;51.056;9.466;2023-08-30T05:29:45;96860.88;;;16.39;72.50
12973;BME280;6551;51.056;9.466;2023-08-30T05:32:10;96865.13;;;16.55;71.94
12973;BME280;6551;51.056;9.466;2023-08-30T05:34:38;96863.50;;;16.64;71.97
12973;BME280;6551;51.056;9.466;2023-08-30T05:37:04;96862.19;;;16.57;71.57
12973;BME280;6551;51.056;9.466;2023-08-30T05:39:30;96857.28;;;16.69;71.98
12973;BME280;6551;51.056;9.466;2023-08-30T05:41:57;96868.28;;;16.72;71.87
12973;BME280;6551;51.056;9.466;2023-08-30T05:44:22;96862.91;;;16.72;72.01
12973;BME280;6551;51.056;9.466;2023-08-30T05:46:49;96865.59;;;16.72;72.26
12973;BME280;6551;51.056;9.466;2023-08-30T05:49:16;96862.91;;;16.72;72.80
12973;BME280;6551;51.056;9.466;2023-08-30T05:51:43;96854.56;;;16.74;72.60
12973;BME280;6551;51.056;9.466;2023-08-30T05:54:09;96865.31;;;16.79;72.03
12973;BME280;6551;51.056;9.466;2023-08-30T05:56:36;96854.00;;;16.82;71.83
12973;BME280;6551;51.056;9.466;2023-08-30T05:59:03;96856.91;;;16.90;71.86
12973;BME280;6551;51.056;9.466;2023-08-30T06:01:28;96860.41;;;16.86;72.09
12973;BME280;6551;51.056;9.466;2023-08-30T06:03:54;96852.00;;;16.98;71.55
12973;BME280;6551;51.056;9.466;2023-08-30T06:06:20;96859.81;;;16.99;71.86
12973;BME280;6551;51.056;9.466;2023-08-30T06:08:47;96863.63;;;16.88;72.16
12973;BME280;6551;51.056;9.466;2023-08-30T06:11:14;96865.44;;;16.98;72.06
12973;BME280;6551;51.056;9.466;2023-08-30T06:13:42;96859.59;;;16.85;72.53
12973;BME280;6551;51.056;9.466;2023-08-30T06:16:07;96861.00;;;16.78;73.02
12973;BME280;6551;51.056;9.466;2023-08-30T06:18:34;96860.19;;;16.77;72.73
12973;BME280;6551;51.056;9.466;2023-08-30T06:21:02;96858.00;;;16.84;72.85
12973;BME280;6551;51.056;9.466;2023-08-30T06:23:28;96865.75;;;16.91;72.88
12973;BME280;6551;51.056;9.466;2023-08-30T06:25:56;96859.00;;;16.99;72.73
12973;BME280;6551;51.056;9.466;2023-08-30T06:28:23;96859.78;;;17.04;72.45
12973;BME280;6551;51.056;9.466;2023-08-30T06:30:50;96864.03;;;17.10;72.21
12973;BME280;6551;51.056;9.466;2023-08-30T06:33:16;96861.56;;;17.14;71.93
12973;BME280;6551;51.056;9.466;2023-08-30T06:35:43;96869.59;;;17.19;72.50
12973;BME280;6551;51.056;9.466;2023-08-30T06:38:15;96866.91;;;17.19;72.73
12973;BME280;6551;51.056;9.466;2023-08-30T06:40:44;96871.78;;;17.17;73.12
12973;BME280;6551;51.056;9.466;2023-08-30T06:43:10;96867.19;;;17.17;73.12
12973;BME280;6551;51.056;9.466;2023-08-30T06:45:39;96861.34;;;17.05;73.92
12973;BME280;6551;51.056;9.466;2023-08-30T06:48:06;96864.41;;;16.88;75.61
12973;BME280;6551;51.056;9.466;2023-08-30T06:50:34;96853.22;;;16.76;76.62
12973;BME280;6551;51.056;9.466;2023-08-30T06:53:03;96855.91;;;16.76;75.95
12973;BME280;6551;51.056;9.466;2023-08-30T06:55:29;96853.31;;;17.00;75.70
12973;BME280;6551;51.056;9.466;2023-08-30T06:57:56;96854.78;;;17.26;76.00
12973;BME280;6551;51.056;9.466;2023-08-30T07:00:22;96852.63;;;17.62;76.13
12973;BME280;6551;51.056;9.466;2023-08-30T07:02:49;96850.56;;;18.06;74.13
12973;BME280;6551;51.056;9.466;2023-08-30T07:05:15;96845.25;;;18.49;72.93
12973;BME280;6551;51.056;9.466;2023-08-30T07:07:42;96845.00;;;18.88;70.39
12973;BME280;6551;51.056;9.466;2023-08-30T07:10:09;96845.19;;;19.28;68.13
12973;BME280;6551;51.056;9.466;2023-08-30T07:12:36;96836.50;;;19.64;66.53
12973;BME280;6551;51.056;9.466;2023-08-30T07:15:03;96842.88;;;19.87;66.94
12973;BME280;6551;51.056;9.466;2023-08-30T07:17:30;96840.78;;;20.11;65.72
12973;BME280;6551;51.056;9.466;2023-08-30T07:19:58;96836.50;;;20.23;65.44
12973;BME280;6551;51.056;9.466;2023-08-30T07:22:24;96834.81;;;20.41;64.44
12973;BME280;6551;51.056;9.466;2023-08-30T07:24:50;96835.44;;;20.52;64.63
12973;BME280;6551;51.056;9.466;2023-08-30T07:27:17;96835.59;;;20.55;65.06
12973;BME280;6551;51.056;9.466;2023-08-30T07:29:44;96832.41;;;20.53;64.79
12973;BME280;6551;51.056;9.466;2023-08-30T07:32:10;96827.31;;;20.52;64.29
12973;BME280;6551;51.056;9.466;2023-08-30T07:34:37;96824.19;;;20.58;64.60
12973;BME280;6551;51.056;9.466;2023-08-30T07:37:04;96826.50;;;20.51;64.85
12973;BME280;6551;51.056;9.466;2023-08-30T07:39:29;96822.00;;;20.47;65.28
12973;BME280;6551;51.056;9.466;2023-08-30T07:41:55;96824.31;;;20.39;65.35
12973;BME280;6551;51.056;9.466;2023-08-30T07:44:21;96832.28;;;20.58;64.65
12973;BME280;6551;51.056;9.466;2023-08-30T07:46:48;96832.06;;;20.82;63.66
12973;BME280;6551;51.056;9.466;2023-08-30T07:49:15;96829.38;;;20.82;63.90
12973;BME280;6551;51.056;9.466;2023-08-30T07:51:42;96824.59;;;20.65;64.33
12973;BME280;6551;51.056;9.466;2023-08-30T07:54:09;96823.69;;;20.56;64.93
12973;BME280;6551;51.056;9.466;2023-08-30T07:56:36;96820.06;;;20.20;66.18
12973;BME280;6551;51.056;9.466;2023-08-30T07:59:04;96818.91;;;20.26;66.73
12973;BME280;6551;51.056;9.466;2023-08-30T08:01:29;96814.59;;;20.38;66.02
12973;BME280;6551;51.056;9.466;2023-08-30T08:03:55;96816.50;;;20.52;66.05
12973;BME280;6551;51.056;9.466;2023-08-30T08:06:21;96821.16;;;20.73;65.68
12973;BME280;6551;51.056;9.466;2023-08-30T08:08:48;96812.47;;;20.63;65.47
12973;BME280;6551;51.056;9.466;2023-08-30T08:11:13;96819.44;;;20.77;65.20
12973;BME280;6551;51.056;9.466;2023-08-30T08:13:40;96824.66;;;20.74;65.12
12973;BME280;6551;51.056;9.466;2023-08-30T08:16:06;96825.06;;;20.67;64.96
12973;BME280;6551;51.056;9.466;2023-08-30T08:18:32;96816.66;;;21.05;64.22
12973;BME280;6551;51.056;9.466;2023-08-30T08:20:58;96821.41;;;20.99;64.19
12973;BME280;6551;51.056;9.466;2023-08-30T08:23:23;96813.97;;;20.91;64.73
12973;BME280;6551;51.056;9.466;2023-08-30T08:25:58;96820.03;;;20.88;64.01
12973;BME280;6551;51.056;9.466;2023-08-30T08:28:25;96808.97;;;20.98;63.92
12973;BME280;6551;51.056;9.466;2023-08-30T08:30:51;96815.22;;;20.85;64.80
12973;BME280;6551;51.056;9.466;2023-08-30T08:33:18;96815.88;;;20.41;66.32
12973;BME280;6551;51.056;9.466;2023-08-30T08:35:45;96811.59;;;20.40;65.94
12973;BME280;6551;51.056;9.466;2023-08-30T08:38:11;96802.72;;;20.75;65.77
12973;BME280;6551;51.056;9.466;2023-08-30T08:40:38;96804.47;;;21.07;65.16
12973;BME280;6551;51.056;9.466;2023-08-30T08:43:10;96805.22;;;21.08;64.86
12973;BME280;6551;51.056;9.466;2023-08-30T08:45:38;96805.91;;;21.13;64.24
12973;BME280;6551;51.056;9.466;2023-08-30T08:48:06;96805.44;;;20.97;65.20
12973;BME280;6551;51.056;9.466;2023-08-30T08:50:36;96809.22;;;20.88;65.70
12973;BME280;6551;51.056;9.466;2023-08-30T08:53:05;96806.22;;;20.76;65.44
12973;BME280;6551;51.056;9.466;2023-08-30T08:55:32;96805.09;;;20.90;65.47
12973;BME280;6551;51.056;9.466;2023-08-30T08:58:00;96798.44;;;20.96;65.29
12973;BME280;6551;51.056;9.466;2023-08-30T09:00:27;96797.81;;;20.99;65.27
12973;BME280;6551;51.056;9.466;2023-08-30T09:02:56;96801.16;;;21.10;64.48
12973;BME280;6551;51.056;9.466;2023-08-30T09:05:22;96796.78;;;20.87;65.00
12973;BME280;6551;51.056;9.466;2023-08-30T09:07:49;96801.19;;;20.83;65.43
12973;BME280;6551;51.056;9.466;2023-08-30T09:10:20;96802.44;;;20.63;65.41
12973;BME280;6551;51.056;9.466;2023-08-30T09:12:47;96797.38;;;20.34;66.18
12973;BME280;6551;51.056;9.466;2023-08-30T09:15:14;96801.06;;;20.11;67.03
12973;BME280;6551;51.056;9.466;2023-08-30T09:17:41;96800.22;;;19.83;67.12
12973;BME280;6551;51.056;9.466;2023-08-30T09:20:11;96797.81;;;19.68;67.57
12973;BME280;6551;51.056;9.466;2023-08-30T09:22:42;96789.44;;;20.11;67.11
12973;BME280;6551;51.056;9.466;2023-08-30T09:25:11;96794.06;;;20.24;67.19
12973;BME280;6551;51.056;9.466;2023-08-30T09:27:38;96794.66;;;20.48;66.19
12973;BME280;6551;51.056;9.466;2023-08-30T09:30:10;96796.28;;;20.85;65.51
12973;BME280;6551;51.056;9.466;2023-08-30T09:32:44;96793.00;;;20.96;65.09
12973;BME280;6551;51.056;9.466;2023-08-30T09:35:11;96793.88;;;21.06;64.66
12973;BME280;6551;51.056;9.466;2023-08-30T09:37:38;96794.13;;;21.09;64.19
12973;BME280;6551;51.056;9.466;2023-08-30T09:40:06;96793.34;;;20.95;64.79
12973;BME280;6551;51.056;9.466;2023-08-30T09:42:31;96789.25;;;20.48;65.72
12973;BME280;6551;51.056;9.466;2023-08-30T09:44:59;96791.88;;;20.26;65.85
12973;BME280;6551;51.056;9.466;2023-08-30T09:47:25;96785.44;;;20.08;66.85
12973;BME280;6551;51.056;9.466;2023-08-30T09:49:55;96781.81;;;19.99;66.64
12973;BME280;6551;51.056;9.466;2023-08-30T09:52:24;96774.03;;;19.98;66.98
12973;BME280;6551;51.056;9.466;2023-08-30T09:54:52;96770.09;;;19.63;67.96
12973;BME280;6551;51.056;9.466;2023-08-30T09:57:19;96770.41;;;19.75;68.62
12973;BME280;6551;51.056;9.466;2023-08-30T09:59:48;96770.13;;;20.04;67.98
12973;BME280;6551;51.056;9.466;2023-08-30T10:02:15;96767.41;;;20.17;67.00
12973;BME280;6551;51.056;9.466;2023-08-30T10:04:44;96765.41;;;20.36;66.52
12973;BME280;6551;51.056;9.466;2023-08-30T10:07:12;96753.59;;;20.46;65.63
12973;BME280;6551;51.056;9.466;2023-08-30T10:09:40;96743.94;;;20.54;65.00
12973;BME280;6551;51.056;9.466;2023-08-30T10:12:16;96758.13;;;20.73;64.74
12973;BME280;6551;51.056;9.466;2023-08-30T10:14:47;96749.47;;;20.49;65.62
12973;BME280;6551;51.056;9.466;2023-08-30T10:17:18;96744.41;;;20.69;65.40
12973;BME280;6551;51.056;9.466;2023-08-30T10:19:45;96750.56;;;20.48;64.94
12973;BME280;6551;51.056;9.466;2023-08-30T10:22:16;96745.00;;;20.66;64.22
12973;BME280;6551;51.056;9.466;2023-08-30T10:25:17;96744.03;;;20.62;65.04
12973;BME280;6551;51.056;9.466;2023-08-30T10:27:56;96730.25;;;20.72;64.83
12973;BME280;6551;51.056;9.466;2023-08-30T10:30:22;96738.09;;;20.24;64.97
12973;BME280;6551;51.056;9.466;2023-08-30T10:33:01;96745.78;;;20.31;65.66
12973;BME280;6551;51.056;9.466;2023-08-30T10:35:28;96744.84;;;20.63;65.69
12973;BME280;6551;51.056;9.466;2023-08-30T10:37:56;96743.06;;;20.80;64.69
12973;BME280;6551;51.056;9.466;2023-08-30T10:41:08;96732.44;;;21.06;64.21
12973;BME280;6551;51.056;9.466;2023-08-30T10:43:36;96743.25;;;21.06;62.69
12973;BME280;6551;51.056;9.466;2023-08-30T10:46:05;96737.66;;;21.02;62.90
12973;BME280;6551;51.056;9.466;2023-08-30T10:48:39;96737.47;;;21.13;63.29
12973;BME280;6551;51.056;9.466;2023-08-30T10:51:35;96738.13;;;21.18;62.78
12973;BME280;6551;51.056;9.466;2023-08-30T10:54:24;96743.56;;;21.49;62.74
12973;BME280;6551;51.056;9.466;2023-08-30T10:56:57;96730.84;;;21.58;62.90
12973;BME280;6551;51.056;9.466;2023-08-30T10:59:32;96735.97;;;21.90;61.37
12973;BME280;6551;51.056;9.466;2023-08-30T11:02:01;96731.09;;;22.09;61.37
12973;BME280;6551;51.056;9.466;2023-08-30T11:04:42;96734.22;;;21.94;61.53
12973;BME280;6551;51.056;9.466;2023-08-30T11:07:10;96732.97;;;21.39;61.63
12973;BME280;6551;51.056;9.466;2023-08-30T11:09:40;96730.63;;;21.15;62.24
12973;BME280;6551;51.056;9.466;2023-08-30T11:12:06;96718.31;;;21.09;62.48
12973;BME280;6551;51.056;9.466;2023-08-30T11:14:34;96719.78;;;21.15;63.00
12973;BME280;6551;51.056;9.466;2023-08-30T11:17:01;96725.41;;;21.05;61.86
12973;BME280;6551;51.056;9.466;2023-08-30T11:19:29;96713.63;;;20.79;61.89
12973;BME280;6551;51.056;9.466;2023-08-30T11:21:56;96721.44;;;20.45;61.29
12973;BME280;6551;51.056;9.466;2023-08-30T11:24:22;96714.25;;;20.40;62.67
12973;BME280;6551;51.056;9.466;2023-08-30T11:26:54;96709.34;;;20.28;62.62
12973;BME280;6551;51.056;9.466;2023-08-30T11:29:20;96711.75;;;20.16;63.64
12973;BME280;6551;51.056;9.466;2023-08-30T11:31:49;96709.88;;;20.03;64.11
12973;BME280;6551;51.056;9.466;2023-08-30T11:34:20;96704.94;;;20.19;63.96
12973;BME280;6551;51.056;9.466;2023-08-30T11:36:51;96709.00;;;20.43;62.50
12973;BME280;6551;51.056;9.466;2023-08-30T11:39:19;96700.78;;;20.49;61.46
12973;BME280;6551;51.056;9.466;2023-08-30T11:41:46;96706.66;;;20.64;61.23
12973;BME280;6551;51.056;9.466;2023-08-30T11:44:15;96707.41;;;20.78;59.97
12973;BME280;6551;51.056;9.466;2023-08-30T11:46:43;96694.91;;;21.13;59.16
12973;BME280;6551;51.056;9.466;2023-08-30T11:49:27;96695.78;;;21.22;59.43
12973;BME280;6551;51.056;9.466;2023-08-30T11:51:54;96698.91;;;21.46;58.23
12973;BME280;6551;51.056;9.466;2023-08-30T11:54:23;96697.53;;;21.49;58.03
12973;BME280;6551;51.056;9.466;2023-08-30T11:56:51;96685.94;;;21.66;56.33
12973;BME280;6551;51.056;9.466;2023-08-30T11:59:22;96686.88;;;22.00;56.21
12973;BME280;6551;51.056;9.466;2023-08-30T12:02:06;96685.16;;;22.04;55.54
12973;BME280;6551;51.056;9.466;2023-08-30T12:04:33;96681.13;;;22.10;56.28
12973;BME280;6551;51.056;9.466;2023-08-30T12:07:05;96689.00;;;22.46;56.10
12973;BME280;6551;51.056;9.466;2023-08-30T12:09:31;96680.91;;;22.81;54.25
12973;BME280;6551;51.056;9.466;2023-08-30T12:12:16;96681.34;;;22.23;55.72
12973;BME280;6551;51.056;9.466;2023-08-30T12:14:43;96681.59;;;21.95;55.92
12973;BME280;6551;51.056;9.466;2023-08-30T12:17:11;96679.69;;;21.96;56.22
12973;BME280;6551;51.056;9.466;2023-08-30T12:19:39;96672.22;;;22.01;55.99
12973;BME280;6551;51.056;9.466;2023-08-30T12:22:10;96675.09;;;22.22;55.81
12973;BME280;6551;51.056;9.466;2023-08-30T12:24:50;96669.63;;;21.96;55.52
12973;BME280;6551;51.056;9.466;2023-08-30T12:27:17;96653.78;;;21.81;55.85
12973;BME280;6551;51.056;9.466;2023-08-30T12:29:44;96666.31;;;21.69;55.96
12973;BME280;6551;51.056;9.466;2023-08-30T12:32:11;96660.94;;;21.77;57.01
12973;BME280;6551;51.056;9.466;2023-08-30T12:34:38;96649.53;;;21.97;56.37
12973;BME280;6551;51.056;9.466;2023-08-30T12:37:19;96651.81;;;22.12;56.19
12973;BME280;6551;51.056;9.466;2023-08-30T12:39:46;96649.91;;;22.30;55.41
12973;BME280;6551;51.056;9.466;2023-08-30T12:42:12;96650.50;;;21.93;54.64
12973;BME280;6551;51.056;9.466;2023-08-30T12:44:39;96647.47;;;21.94;56.07
12973;BME280;6551;51.056;9.466;2023-08-30T12:47:07;96643.63;;;21.87;55.62
12973;BME280;6551;51.056;9.466;2023-08-30T12:49:33;96638.56;;;21.63;55.75
12973;BME280;6551;51.056;9.466;2023-08-30T12:51:58;96639.47;;;21.41;56.20
12973;BME280;6551;51.056;9.466;2023-08-30T12:54:25;96633.56;;;21.39;56.98
12973;BME280;6551;51.056;9.466;2023-08-30T12:56:51;96638.75;;;21.27;57.23
12973;BME280;6551;51.056;9.466;2023-08-30T12:59:18;96634.28;;;21.23;57.67
12973;BME280;6551;51.056;9.466;2023-08-30T13:01:45;96629.84;;;20.96;58.41
12973;BME280;6551;51.056;9.466;2023-08-30T13:04:12;96633.25;;;20.79;59.70
12973;BME280;6551;51.056;9.466;2023-08-30T13:06:39;96632.09;;;21.02;59.58
12973;BME280;6551;51.056;9.466;2023-08-30T13:09:05;96625.78;;;21.07;59.36
12973;BME280;6551;51.056;9.466;2023-08-30T13:11:31;96637.97;;;20.96;59.38
12973;BME280;6551;51.056;9.466;2023-08-30T13:13:58;96640.34;;;20.75;59.17
12973;BME280;6551;51.056;9.466;2023-08-30T13:16:24;96633.31;;;20.66;59.88